sensor_id;sensor_type;location;lat;lon;timestamp;temperature;humidity
30594;DHT22;33199;47.590;8.300;2022-11-04T00:01:24;15.60;73.80
30594;DHT22;33199;47.590;8.300;2022-11-04T00:03:50;15.60;73.70
30594;DHT22;33199;47.590;8.300;2022-11-04T00:06:16;15.60;73.80
30594;DHT22;33199;47.590;8.300;2022-11-04T00:08:41;15.60;73.70
30594;DHT22;33199;47.590;8.300;2022-11-04T00:11:08;15.60;73.80
30594;DHT22;33199;47.590;8.300;2022-11-04T00:14:12;15.60;73.80
30594;DHT22;33199;47.590;8.300;2022-11-04T00:16:38;15.60;73.70
30594;DHT22;33199;47.590;8.300;2022-11-04T00:19:22;15.60;73.60
30594;DHT22;33199;47.590;8.300;2022-11-04T00:21:48;15.50;73.60
30594;DHT22;33199;47.590;8.300;2022-11-04T00:24:32;15.60;73.60
30594;DHT22;33199;47.590;8.300;2022-11-04T00:27:11;15.50;73.60
30594;DHT22;33199;47.590;8.300;2022-11-04T00:29:55;15.50;73.60
30594;DHT22;33199;47.590;8.300;2022-11-04T00:32:21;15.60;73.70
30594;DHT22;33199;47.590;8.300;2022-11-04T00:35:05;15.60;73.70
30594;DHT22;33199;47.590;8.300;2022-11-04T00:37:34;15.60;73.60
30594;DHT22;33199;47.590;8.300;2022-11-04T00:40:00;15.60;73.70
30594;DHT22;33199;47.590;8.300;2022-11-04T00:42:25;15.60;73.70
30594;DHT22;33199;47.590;8.300;2022-11-04T00:44:50;15.60;73.70
30594;DHT22;33199;47.590;8.300;2022-11-04T00:47:16;15.50;73.60
30594;DHT22;33199;47.590;8.300;2022-11-04T00:49:41;15.60;73.70
30594;DHT22;33199;47.590;8.300;2022-11-04T00:52:07;15.60;73.60
30594;DHT22;33199;47.590;8.300;2022-11-04T00:54:32;15.60;73.70
30594;DHT22;33199;47.590;8.300;2022-11-04T00:56:58;15.60;73.60
30594;DHT22;33199;47.590;8.300;2022-11-04T00:59:23;15.50;73.50
30594;DHT22;33199;47.590;8.300;2022-11-04T01:01:48;15.50;73.60
30594;DHT22;33199;47.590;8.300;2022-11-04T01:04:14;15.60;73.70
30594;DHT22;33199;47.590;8.300;2022-11-04T01:06:39;15.60;73.70
30594;DHT22;33199;47.590;8.300;2022-11-04T01:09:06;15.50;73.60
30594;DHT22;33199;47.590;8.300;2022-11-04T01:11:35;15.60;73.60
30594;DHT22;33199;47.590;8.300;2022-11-04T01:14:00;15.50;73.60
30594;DHT22;33199;47.590;8.300;2022-11-04T01:16:26;15.50;73.60
30594;DHT22;33199;47.590;8.300;2022-11-04T01:18:52;15.50;73.60
30594;DHT22;33199;47.590;8.300;2022-11-04T01:21:17;15.60;73.60
30594;DHT22;33199;47.590;8.300;2022-11-04T01:23:43;15.50;73.60
30594;DHT22;33199;47.590;8.300;2022-11-04T01:26:13;15.50;73.60
30594;DHT22;33199;47.590;8.300;2022-11-04T01:28:39;15.50;73.50
30594;DHT22;33199;47.590;8.300;2022-11-04T01:31:05;15.60;73.70
30594;DHT22;33199;47.590;8.300;2022-11-04T01:33:31;15.60;73.60
30594;DHT22;33199;47.590;8.300;2022-11-04T01:36:00;15.50;73.60
30594;DHT22;33199;47.590;8.300;2022-11-04T01:38:25;15.50;73.60
30594;DHT22;33199;47.590;8.300;2022-11-04T01:40:51;15.50;73.60
30594;DHT22;33199;47.590;8.300;2022-11-04T01:43:17;15.50;73.60
30594;DHT22;33199;47.590;8.300;2022-11-04T01:45:47;15.50;73.60
30594;DHT22;33199;47.590;8.300;2022-11-04T01:48:16;15.50;73.50
30594;DHT22;33199;47.590;8.300;2022-11-04T01:50:45;15.50;73.60
30594;DHT22;33199;47.590;8.300;2022-11-04T01:53:11;15.50;73.60
30594;DHT22;33199;47.590;8.300;2022-11-04T01:55:40;15.50;74.20
30594;DHT22;33199;47.590;8.300;2022-11-04T01:58:08;15.50;73.60
30594;DHT22;33199;47.590;8.300;2022-11-04T02:00:36;15.50;73.50
30594;DHT22;33199;47.590;8.300;2022-11-04T02:03:10;15.50;73.60
30594;DHT22;33199;47.590;8.300;2022-11-04T02:05:36;15.50;73.50
30594;DHT22;33199;47.590;8.300;2022-11-04T02:08:03;15.50;73.50
30594;DHT22;33199;47.590;8.300;2022-11-04T02:10:30;15.50;73.60
30594;DHT22;33199;47.590;8.300;2022-11-04T02:12:56;15.50;73.50
30594;DHT22;33199;47.590;8.300;2022-11-04T02:18:14;15.50;73.50
30594;DHT22;33199;47.590;8.300;2022-11-04T02:28:30;15.50;73.50
30594;DHT22;33199;47.590;8.300;2022-11-04T02:31:14;15.50;73.40
30594;DHT22;33199;47.590;8.300;2022-11-04T02:33:48;15.50;73.40
30594;DHT22;33199;47.590;8.300;2022-11-04T02:36:54;15.50;73.50
30594;DHT22;33199;47.590;8.300;2022-11-04T02:41:47;15.50;73.50
30594;DHT22;33199;47.590;8.300;2022-11-04T02:44:24;15.50;73.40
30594;DHT22;33199;47.590;8.300;2022-11-04T02:46:52;15.50;73.50
30594;DHT22;33199;47.590;8.300;2022-11-04T02:49:21;15.50;73.40
30594;DHT22;33199;47.590;8.300;2022-11-04T02:54:24;15.50;73.50
30594;DHT22;33199;47.590;8.300;2022-11-04T02:56:53;15.50;73.40
30594;DHT22;33199;47.590;8.300;2022-11-04T02:59:30;15.50;73.40
30594;DHT22;33199;47.590;8.300;2022-11-04T03:01:56;15.50;73.40
30594;DHT22;33199;47.590;8.300;2022-11-04T03:04:30;15.50;73.40
30594;DHT22;33199;47.590;8.300;2022-11-04T03:06:56;15.50;73.40
30594;DHT22;33199;47.590;8.300;2022-11-04T03:09:22;15.50;73.40
30594;DHT22;33199;47.590;8.300;2022-11-04T03:11:49;15.50;73.40
30594;DHT22;33199;47.590;8.300;2022-11-04T03:14:17;15.40;73.40
30594;DHT22;33199;47.590;8.300;2022-11-04T03:16:44;15.40;73.40
30594;DHT22;33199;47.590;8.300;2022-11-04T03:19:24;15.40;73.30
30594;DHT22;33199;47.590;8.300;2022-11-04T03:21:53;15.40;73.40
30594;DHT22;33199;47.590;8.300;2022-11-04T03:24:19;15.40;73.40
30594;DHT22;33199;47.590;8.300;2022-11-04T03:26:52;15.40;74.00
30594;DHT22;33199;47.590;8.300;2022-11-04T03:29:25;15.40;73.30
30594;DHT22;33199;47.590;8.300;2022-11-04T03:32:01;15.40;73.30
30594;DHT22;33199;47.590;8.300;2022-11-04T03:34:28;15.40;73.30
30594;DHT22;33199;47.590;8.300;2022-11-04T03:36:54;15.40;73.30
30594;DHT22;33199;47.590;8.300;2022-11-04T03:39:20;15.40;73.20
30594;DHT22;33199;47.590;8.300;2022-11-04T03:41:47;15.40;73.20
30594;DHT22;33199;47.590;8.300;2022-11-04T03:44:13;15.40;73.20
30594;DHT22;33199;47.590;8.300;2022-11-04T03:46:39;15.40;73.10
30594;DHT22;33199;47.590;8.300;2022-11-04T03:49:04;15.40;73.20
30594;DHT22;33199;47.590;8.300;2022-11-04T03:51:31;15.40;73.30
30594;DHT22;33199;47.590;8.300;2022-11-04T03:53:56;15.40;73.20
30594;DHT22;33199;47.590;8.300;2022-11-04T03:56:32;15.40;73.30
30594;DHT22;33199;47.590;8.300;2022-11-04T04:04:19;15.40;73.20
30594;DHT22;33199;47.590;8.300;2022-11-04T04:06:47;15.40;73.20
30594;DHT22;33199;47.590;8.300;2022-11-04T04:09:22;15.40;73.10
30594;DHT22;33199;47.590;8.300;2022-11-04T04:12:02;15.40;73.20
30594;DHT22;33199;47.590;8.300;2022-11-04T04:17:23;15.40;73.20
30594;DHT22;33199;47.590;8.300;2022-11-04T04:19:56;15.40;73.30
30594;DHT22;33199;47.590;8.300;2022-11-04T04:22:23;15.40;73.30
30594;DHT22;33199;47.590;8.300;2022-11-04T04:24:51;15.40;73.20
30594;DHT22;33199;47.590;8.300;2022-11-04T04:27:35;15.40;73.20
30594;DHT22;33199;47.590;8.300;2022-11-04T04:30:06;15.40;73.20
30594;DHT22;33199;47.590;8.300;2022-11-04T04:32:33;15.40;73.20
30594;DHT22;33199;47.590;8.300;2022-11-04T04:35:00;15.40;73.20
30594;DHT22;33199;47.590;8.300;2022-11-04T04:37:44;15.40;73.20
30594;DHT22;33199;47.590;8.300;2022-11-04T04:40:12;15.40;73.10
30594;DHT22;33199;47.590;8.300;2022-11-04T04:42:58;15.40;73.20
30594;DHT22;33199;47.590;8.300;2022-11-04T04:45:43;15.40;73.20
30594;DHT22;33199;47.590;8.300;2022-11-04T04:48:12;15.40;73.10
30594;DHT22;33199;47.590;8.300;2022-11-04T04:50:39;15.40;74.00
30594;DHT22;33199;47.590;8.300;2022-11-04T04:53:05;15.40;73.20
30594;DHT22;33199;47.590;8.300;2022-11-04T04:55:30;15.40;73.20
30594;DHT22;33199;47.590;8.300;2022-11-04T04:57:58;15.40;73.10
30594;DHT22;33199;47.590;8.300;2022-11-04T05:00:24;15.40;73.10
30594;DHT22;33199;47.590;8.300;2022-11-04T05:02:50;15.40;73.10
30594;DHT22;33199;47.590;8.300;2022-11-04T05:05:15;15.40;73.10
30594;DHT22;33199;47.590;8.300;2022-11-04T05:07:41;15.40;73.20
30594;DHT22;33199;47.590;8.300;2022-11-04T05:10:07;15.40;73.10
30594;DHT22;33199;47.590;8.300;2022-11-04T05:12:33;15.40;73.10
30594;DHT22;33199;47.590;8.300;2022-11-04T05:15:18;15.40;73.00
30594;DHT22;33199;47.590;8.300;2022-11-04T05:17:43;15.40;73.10
30594;DHT22;33199;47.590;8.300;2022-11-04T05:20:09;15.40;73.10
30594;DHT22;33199;47.590;8.300;2022-11-04T05:22:34;15.30;73.00
30594;DHT22;33199;47.590;8.300;2022-11-04T05:25:00;15.40;73.10
30594;DHT22;33199;47.590;8.300;2022-11-04T05:27:25;15.40;73.00
30594;DHT22;33199;47.590;8.300;2022-11-04T05:29:51;15.40;73.10
30594;DHT22;33199;47.590;8.300;2022-11-04T05:32:16;15.40;73.00
30594;DHT22;33199;47.590;8.300;2022-11-04T05:34:42;15.40;73.00
30594;DHT22;33199;47.590;8.300;2022-11-04T05:37:07;15.40;73.00
30594;DHT22;33199;47.590;8.300;2022-11-04T05:39:33;15.30;73.00
30594;DHT22;33199;47.590;8.300;2022-11-04T05:41:58;15.30;72.90
30594;DHT22;33199;47.590;8.300;2022-11-04T05:44:25;15.40;73.00
30594;DHT22;33199;47.590;8.300;2022-11-04T05:46:50;15.40;73.10
30594;DHT22;33199;47.590;8.300;2022-11-04T05:49:16;15.30;72.90
30594;DHT22;33199;47.590;8.300;2022-11-04T05:51:41;15.40;72.90
30594;DHT22;33199;47.590;8.300;2022-11-04T05:54:07;15.40;73.10
30594;DHT22;33199;47.590;8.300;2022-11-04T05:56:33;15.30;73.00
30594;DHT22;33199;47.590;8.300;2022-11-04T05:58:59;15.30;72.90
30594;DHT22;33199;47.590;8.300;2022-11-04T06:01:26;15.30;73.10
30594;DHT22;33199;47.590;8.300;2022-11-04T06:03:52;15.30;73.00
30594;DHT22;33199;47.590;8.300;2022-11-04T06:06:18;15.40;73.10
30594;DHT22;33199;47.590;8.300;2022-11-04T06:08:44;15.30;73.00
30594;DHT22;33199;47.590;8.300;2022-11-04T06:11:09;15.30;73.00
30594;DHT22;33199;47.590;8.300;2022-11-04T06:13:35;15.30;73.10
30594;DHT22;33199;47.590;8.300;2022-11-04T06:16:00;15.30;72.90
30594;DHT22;33199;47.590;8.300;2022-11-04T06:18:25;15.30;72.90
30594;DHT22;33199;47.590;8.300;2022-11-04T06:21:17;15.30;73.00
30594;DHT22;33199;47.590;8.300;2022-11-04T06:23:45;15.30;72.90
30594;DHT22;33199;47.590;8.300;2022-11-04T06:26:11;15.30;73.00
30594;DHT22;33199;47.590;8.300;2022-11-04T06:28:37;15.30;72.90
30594;DHT22;33199;47.590;8.300;2022-11-04T06:31:03;15.30;72.90
30594;DHT22;33199;47.590;8.300;2022-11-04T06:33:29;15.30;72.90
30594;DHT22;33199;47.590;8.300;2022-11-04T06:35:55;15.30;67.80
30594;DHT22;33199;47.590;8.300;2022-11-04T06:38:21;15.20;65.00
30594;DHT22;33199;47.590;8.300;2022-11-04T06:40:46;14.90;64.40
30594;DHT22;33199;47.590;8.300;2022-11-04T06:43:12;14.50;64.90
30594;DHT22;33199;47.590;8.300;2022-11-04T06:45:37;14.40;65.70
30594;DHT22;33199;47.590;8.300;2022-11-04T06:48:03;14.20;66.00
30594;DHT22;33199;47.590;8.300;2022-11-04T06:50:28;14.20;66.50
30594;DHT22;33199;47.590;8.300;2022-11-04T06:52:54;14.00;66.90
30594;DHT22;33199;47.590;8.300;2022-11-04T06:55:19;13.90;67.40
30594;DHT22;33199;47.590;8.300;2022-11-04T06:57:45;13.80;67.70
30594;DHT22;33199;47.590;8.300;2022-11-04T07:00:10;13.60;68.20
30594;DHT22;33199;47.590;8.300;2022-11-04T07:02:36;13.50;68.60
30594;DHT22;33199;47.590;8.300;2022-11-04T07:05:03;13.50;68.80
30594;DHT22;33199;47.590;8.300;2022-11-04T07:07:29;13.30;69.00
30594;DHT22;33199;47.590;8.300;2022-11-04T07:09:54;13.30;69.60
30594;DHT22;33199;47.590;8.300;2022-11-04T07:12:20;13.10;69.80
30594;DHT22;33199;47.590;8.300;2022-11-04T07:14:47;13.10;70.20
30594;DHT22;33199;47.590;8.300;2022-11-04T07:17:13;13.00;70.50
30594;DHT22;33199;47.590;8.300;2022-11-04T07:19:38;13.00;70.70
30594;DHT22;33199;47.590;8.300;2022-11-04T07:22:04;13.00;71.20
30594;DHT22;33199;47.590;8.300;2022-11-04T07:24:29;13.00;71.40
30594;DHT22;33199;47.590;8.300;2022-11-04T07:26:55;13.10;71.50
30594;DHT22;33199;47.590;8.300;2022-11-04T07:29:20;13.20;71.50
30594;DHT22;33199;47.590;8.300;2022-11-04T07:31:46;13.30;71.30
30594;DHT22;33199;47.590;8.300;2022-11-04T07:34:11;13.40;71.30
30594;DHT22;33199;47.590;8.300;2022-11-04T07:36:37;13.50;71.30
30594;DHT22;33199;47.590;8.300;2022-11-04T07:39:02;13.60;71.40
30594;DHT22;33199;47.590;8.300;2022-11-04T07:41:28;13.60;71.30
30594;DHT22;33199;47.590;8.300;2022-11-04T07:43:53;13.70;71.40
30594;DHT22;33199;47.590;8.300;2022-11-04T07:46:19;13.80;71.10
30594;DHT22;33199;47.590;8.300;2022-11-04T07:48:45;13.80;71.00
30594;DHT22;33199;47.590;8.300;2022-11-04T07:51:11;13.90;70.80
30594;DHT22;33199;47.590;8.300;2022-11-04T07:53:37;13.90;70.80
30594;DHT22;33199;47.590;8.300;2022-11-04T07:56:04;14.00;70.80
30594;DHT22;33199;47.590;8.300;2022-11-04T07:58:29;14.00;70.50
30594;DHT22;33199;47.590;8.300;2022-11-04T08:00:58;14.00;70.40
30594;DHT22;33199;47.590;8.300;2022-11-04T08:03:24;14.10;70.60
30594;DHT22;33199;47.590;8.300;2022-11-04T08:05:56;14.10;70.50
30594;DHT22;33199;47.590;8.300;2022-11-04T08:08:22;14.10;70.40
30594;DHT22;33199;47.590;8.300;2022-11-04T08:10:54;14.10;70.50
30594;DHT22;33199;47.590;8.300;2022-11-04T08:13:21;14.20;70.50
30594;DHT22;33199;47.590;8.300;2022-11-04T08:15:48;14.20;70.60
30594;DHT22;33199;47.590;8.300;2022-11-04T08:18:13;14.20;70.50
30594;DHT22;33199;47.590;8.300;2022-11-04T08:20:39;14.20;70.60
30594;DHT22;33199;47.590;8.300;2022-11-04T08:23:04;14.20;70.50
30594;DHT22;33199;47.590;8.300;2022-11-04T08:25:30;14.30;70.60
30594;DHT22;33199;47.590;8.300;2022-11-04T08:27:55;14.30;70.50
30594;DHT22;33199;47.590;8.300;2022-11-04T08:30:20;14.30;70.50
30594;DHT22;33199;47.590;8.300;2022-11-04T08:32:46;14.30;70.50
30594;DHT22;33199;47.590;8.300;2022-11-04T08:35:11;14.30;70.50
30594;DHT22;33199;47.590;8.300;2022-11-04T08:37:37;14.30;70.50
30594;DHT22;33199;47.590;8.300;2022-11-04T08:40:03;14.30;70.50
30594;DHT22;33199;47.590;8.300;2022-11-04T08:42:28;14.40;70.70
30594;DHT22;33199;47.590;8.300;2022-11-04T08:44:54;14.30;70.50
30594;DHT22;33199;47.590;8.300;2022-11-04T08:47:19;14.40;70.60
30594;DHT22;33199;47.590;8.300;2022-11-04T08:49:45;14.40;70.60
30594;DHT22;33199;47.590;8.300;2022-11-04T08:52:10;14.40;70.70
30594;DHT22;33199;47.590;8.300;2022-11-04T08:54:36;14.40;70.70
30594;DHT22;33199;47.590;8.300;2022-11-04T08:57:01;14.40;70.70
30594;DHT22;33199;47.590;8.300;2022-11-04T08:59:27;14.40;70.60
30594;DHT22;33199;47.590;8.300;2022-11-04T09:01:52;14.40;70.60
30594;DHT22;33199;47.590;8.300;2022-11-04T09:04:18;14.40;70.60
30594;DHT22;33199;47.590;8.300;2022-11-04T09:06:44;14.40;70.60
30594;DHT22;33199;47.590;8.300;2022-11-04T09:09:12;14.50;70.70
30594;DHT22;33199;47.590;8.300;2022-11-04T09:11:39;14.50;70.70
30594;DHT22;33199;47.590;8.300;2022-11-04T09:14:05;14.40;70.60
30594;DHT22;33199;47.590;8.300;2022-11-04T09:16:31;14.40;70.70
30594;DHT22;33199;47.590;8.300;2022-11-04T09:18:56;14.50;70.70
30594;DHT22;33199;47.590;8.300;2022-11-04T09:21:22;14.50;70.80
30594;DHT22;33199;47.590;8.300;2022-11-04T09:23:48;14.50;70.80
30594;DHT22;33199;47.590;8.300;2022-11-04T09:26:14;14.50;70.70
30594;DHT22;33199;47.590;8.300;2022-11-04T09:28:40;14.50;70.70
30594;DHT22;33199;47.590;8.300;2022-11-04T09:31:06;14.50;70.70
30594;DHT22;33199;47.590;8.300;2022-11-04T09:33:32;14.50;70.70
30594;DHT22;33199;47.590;8.300;2022-11-04T09:35:58;14.50;70.60
30594;DHT22;33199;47.590;8.300;2022-11-04T09:38:24;14.50;70.70
30594;DHT22;33199;47.590;8.300;2022-11-04T09:40:50;14.50;70.70
30594;DHT22;33199;47.590;8.300;2022-11-04T09:45:41;14.50;70.70
30594;DHT22;33199;47.590;8.300;2022-11-04T09:48:08;14.50;70.70
30594;DHT22;33199;47.590;8.300;2022-11-04T09:50:46;14.50;70.70
30594;DHT22;33199;47.590;8.300;2022-11-04T09:53:17;14.50;70.60
30594;DHT22;33199;47.590;8.300;2022-11-04T09:58:18;14.50;70.70
30594;DHT22;33199;47.590;8.300;2022-11-04T10:00:45;14.50;70.60
30594;DHT22;33199;47.590;8.300;2022-11-04T10:03:36;14.50;70.70
30594;DHT22;33199;47.590;8.300;2022-11-04T10:06:17;14.60;70.70
30594;DHT22;33199;47.590;8.300;2022-11-04T10:14:03;14.60;70.70
30594;DHT22;33199;47.590;8.300;2022-11-04T10:16:41;14.60;70.70
30594;DHT22;33199;47.590;8.300;2022-11-04T10:24:45;14.60;70.70
30594;DHT22;33199;47.590;8.300;2022-11-04T10:27:15;14.60;70.80
30594;DHT22;33199;47.590;8.300;2022-11-04T10:29:42;14.60;70.80
30594;DHT22;33199;47.590;8.300;2022-11-04T10:32:19;14.60;70.80
30594;DHT22;33199;47.590;8.300;2022-11-04T10:37:32;14.60;70.70
30594;DHT22;33199;47.590;8.300;2022-11-04T10:40:05;14.60;70.70
30594;DHT22;33199;47.590;8.300;2022-11-04T10:42:39;14.60;71.40
30594;DHT22;33199;47.590;8.300;2022-11-04T10:45:05;14.60;70.70
30594;DHT22;33199;47.590;8.300;2022-11-04T10:53:22;14.60;70.70
30594;DHT22;33199;47.590;8.300;2022-11-04T10:58:35;14.60;70.70
30594;DHT22;33199;47.590;8.300;2022-11-04T11:03:47;14.60;70.70
30594;DHT22;33199;47.590;8.300;2022-11-04T11:08:38;14.70;70.70
30594;DHT22;33199;47.590;8.300;2022-11-04T11:11:06;14.70;70.70
30594;DHT22;33199;47.590;8.300;2022-11-04T11:13:36;14.60;70.70
30594;DHT22;33199;47.590;8.300;2022-11-04T11:16:12;14.70;70.80
30594;DHT22;33199;47.590;8.300;2022-11-04T11:18:41;14.60;70.70
30594;DHT22;33199;47.590;8.300;2022-11-04T11:21:14;14.70;70.80
30594;DHT22;33199;47.590;8.300;2022-11-04T11:23:43;14.70;70.80
30594;DHT22;33199;47.590;8.300;2022-11-04T11:26:12;14.70;70.90
30594;DHT22;33199;47.590;8.300;2022-11-04T11:28:38;14.70;70.70
30594;DHT22;33199;47.590;8.300;2022-11-04T11:31:08;14.70;70.80
30594;DHT22;33199;47.590;8.300;2022-11-04T11:33:51;14.70;70.70
30594;DHT22;33199;47.590;8.300;2022-11-04T11:36:21;14.70;70.70
30594;DHT22;33199;47.590;8.300;2022-11-04T11:41:33;14.70;70.70
30594;DHT22;33199;47.590;8.300;2022-11-04T11:44:06;14.70;70.70
30594;DHT22;33199;47.590;8.300;2022-11-04T11:46:47;14.70;70.80
30594;DHT22;33199;47.590;8.300;2022-11-04T11:49:21;14.70;70.80
30594;DHT22;33199;47.590;8.300;2022-11-04T11:51:47;14.70;70.80
30594;DHT22;33199;47.590;8.300;2022-11-04T11:54:16;14.70;70.80
30594;DHT22;33199;47.590;8.300;2022-11-04T11:56:45;14.70;70.80
30594;DHT22;33199;47.590;8.300;2022-11-04T11:59:19;14.70;70.80
30594;DHT22;33199;47.590;8.300;2022-11-04T12:01:58;14.70;70.80
30594;DHT22;33199;47.590;8.300;2022-11-04T12:04:26;14.70;70.70
30594;DHT22;33199;47.590;8.300;2022-11-04T12:06:54;14.70;69.10
30594;DHT22;33199;47.590;8.300;2022-11-04T12:09:29;14.60;67.00
30594;DHT22;33199;47.590;8.300;2022-11-04T12:20:06;14.40;69.60
30594;DHT22;33199;47.590;8.300;2022-11-04T12:22:54;14.50;69.90
30594;DHT22;33199;47.590;8.300;2022-11-04T12:30:23;14.60;70.00
30594;DHT22;33199;47.590;8.300;2022-11-04T12:40:43;14.80;70.30
30594;DHT22;33199;47.590;8.300;2022-11-04T12:48:11;14.90;70.40
30594;DHT22;33199;47.590;8.300;2022-11-04T12:55:56;14.90;70.50
30594;DHT22;33199;47.590;8.300;2022-11-04T13:01:00;15.00;70.60
30594;DHT22;33199;47.590;8.300;2022-11-04T13:03:28;14.90;70.50
30594;DHT22;33199;47.590;8.300;2022-11-04T13:05:57;15.00;70.50
30594;DHT22;33199;47.590;8.300;2022-11-04T13:11:00;15.00;70.50
30594;DHT22;33199;47.590;8.300;2022-11-04T13:13:32;15.00;70.50
30594;DHT22;33199;47.590;8.300;2022-11-04T13:15:59;15.00;70.40
30594;DHT22;33199;47.590;8.300;2022-11-04T13:18:27;15.10;70.50
30594;DHT22;33199;47.590;8.300;2022-11-04T13:20:58;15.00;70.50
30594;DHT22;33199;47.590;8.300;2022-11-04T13:23:43;15.00;70.50
30594;DHT22;33199;47.590;8.300;2022-11-04T13:26:11;15.10;70.60
30594;DHT22;33199;47.590;8.300;2022-11-04T13:28:38;15.10;70.50
30594;DHT22;33199;47.590;8.300;2022-11-04T13:31:18;15.10;70.50
30594;DHT22;33199;47.590;8.300;2022-11-04T13:33:50;15.10;70.50
30594;DHT22;33199;47.590;8.300;2022-11-04T13:36:21;15.10;70.50
30594;DHT22;33199;47.590;8.300;2022-11-04T13:38:55;15.10;70.50
30594;DHT22;33199;47.590;8.300;2022-11-04T13:41:26;15.10;70.50
30594;DHT22;33199;47.590;8.300;2022-11-04T13:43:57;15.10;70.50
30594;DHT22;33199;47.590;8.300;2022-11-04T13:46:26;15.20;70.50
30594;DHT22;33199;47.590;8.300;2022-11-04T13:51:22;15.20;70.50
30594;DHT22;33199;47.590;8.300;2022-11-04T13:53:57;15.20;70.60
30594;DHT22;33199;47.590;8.300;2022-11-04T13:58:52;15.20;70.40
30594;DHT22;33199;47.590;8.300;2022-11-04T14:03:52;15.20;70.40
30594;DHT22;33199;47.590;8.300;2022-11-04T14:06:46;15.20;70.40
30594;DHT22;33199;47.590;8.300;2022-11-04T14:09:23;15.20;70.40
30594;DHT22;33199;47.590;8.300;2022-11-04T14:14:33;15.20;70.40
30594;DHT22;33199;47.590;8.300;2022-11-04T14:16:58;15.20;70.40
30594;DHT22;33199;47.590;8.300;2022-11-04T14:22:12;15.20;70.40
30594;DHT22;33199;47.590;8.300;2022-11-04T14:24:38;15.20;70.40
30594;DHT22;33199;47.590;8.300;2022-11-04T14:27:03;15.20;70.40
30594;DHT22;33199;47.590;8.300;2022-11-04T14:29:30;15.20;70.40
30594;DHT22;33199;47.590;8.300;2022-11-04T14:31:56;15.20;70.30
30594;DHT22;33199;47.590;8.300;2022-11-04T14:36:55;15.20;70.40
30594;DHT22;33199;47.590;8.300;2022-11-04T14:39:26;15.20;70.40
30594;DHT22;33199;47.590;8.300;2022-11-04T14:41:54;15.20;70.40
30594;DHT22;33199;47.590;8.300;2022-11-04T14:47:37;15.30;70.40
30594;DHT22;33199;47.590;8.300;2022-11-04T14:49:47;15.30;70.40
30594;DHT22;33199;47.590;8.300;2022-11-04T14:52:27;15.30;70.40
30594;DHT22;33199;47.590;8.300;2022-11-04T14:57:28;15.20;70.30
30594;DHT22;33199;47.590;8.300;2022-11-04T14:59:54;15.30;70.30
30594;DHT22;33199;47.590;8.300;2022-11-04T15:02:21;15.30;70.30
30594;DHT22;33199;47.590;8.300;2022-11-04T15:04:57;15.30;70.30
30594;DHT22;33199;47.590;8.300;2022-11-04T15:07:24;15.30;70.20
30594;DHT22;33199;47.590;8.300;2022-11-04T15:09:50;15.30;70.20
30594;DHT22;33199;47.590;8.300;2022-11-04T15:12:17;15.30;70.20
30594;DHT22;33199;47.590;8.300;2022-11-04T15:15:01;15.30;70.30
30594;DHT22;33199;47.590;8.300;2022-11-04T15:17:44;15.30;70.20
30594;DHT22;33199;47.590;8.300;2022-11-04T15:20:14;15.30;70.30
30594;DHT22;33199;47.590;8.300;2022-11-04T15:22:43;15.30;70.20
30594;DHT22;33199;47.590;8.300;2022-11-04T15:25:09;15.30;70.20
30594;DHT22;33199;47.590;8.300;2022-11-04T15:27:35;15.30;70.20
30594;DHT22;33199;47.590;8.300;2022-11-04T15:30:02;15.30;70.20
30594;DHT22;33199;47.590;8.300;2022-11-04T15:32:28;15.30;70.20
30594;DHT22;33199;47.590;8.300;2022-11-04T15:34:53;15.30;70.20
30594;DHT22;33199;47.590;8.300;2022-11-04T15:37:20;15.30;70.20
30594;DHT22;33199;47.590;8.300;2022-11-04T15:39:46;15.30;70.20
30594;DHT22;33199;47.590;8.300;2022-11-04T15:42:17;15.30;70.20
30594;DHT22;33199;47.590;8.300;2022-11-04T15:47:48;15.30;70.20
30594;DHT22;33199;47.590;8.300;2022-11-04T15:50:21;15.30;70.20
30594;DHT22;33199;47.590;8.300;2022-11-04T15:52:49;15.30;70.20
30594;DHT22;33199;47.590;8.300;2022-11-04T15:55:20;15.30;70.30
30594;DHT22;33199;47.590;8.300;2022-11-04T15:57:46;15.20;66.50
30594;DHT22;33199;47.590;8.300;2022-11-04T16:02:44;15.10;66.40
30594;DHT22;33199;47.590;8.300;2022-11-04T16:07:37;15.00;67.90
30594;DHT22;33199;47.590;8.300;2022-11-04T16:10:20;15.00;68.00
30594;DHT22;33199;47.590;8.300;2022-11-04T16:12:46;15.00;68.30
30594;DHT22;33199;47.590;8.300;2022-11-04T16:17:56;15.10;68.80
30594;DHT22;33199;47.590;8.300;2022-11-04T16:20:21;15.10;69.00
30594;DHT22;33199;47.590;8.300;2022-11-04T16:22:53;15.20;69.20
30594;DHT22;33199;47.590;8.300;2022-11-04T16:25:20;15.20;69.30
30594;DHT22;33199;47.590;8.300;2022-11-04T16:27:46;15.20;69.50
30594;DHT22;33199;47.590;8.300;2022-11-04T16:32:44;15.20;69.70
30594;DHT22;33199;47.590;8.300;2022-11-04T16:35:16;15.20;69.70
30594;DHT22;33199;47.590;8.300;2022-11-04T16:37:42;15.20;69.90
30594;DHT22;33199;47.590;8.300;2022-11-04T16:40:07;15.20;69.90
30594;DHT22;33199;47.590;8.300;2022-11-04T16:42:33;15.30;70.10
30594;DHT22;33199;47.590;8.300;2022-11-04T16:44:59;15.30;70.20
30594;DHT22;33199;47.590;8.300;2022-11-04T16:47:25;15.30;70.20
30594;DHT22;33199;47.590;8.300;2022-11-04T16:49:57;15.30;70.20
30594;DHT22;33199;47.590;8.300;2022-11-04T16:52:23;15.30;70.20
30594;DHT22;33199;47.590;8.300;2022-11-04T16:54:52;15.30;70.40
30594;DHT22;33199;47.590;8.300;2022-11-04T16:57:20;15.30;70.50
30594;DHT22;33199;47.590;8.300;2022-11-04T16:59:46;15.30;70.60
30594;DHT22;33199;47.590;8.300;2022-11-04T17:04:44;15.30;70.70
30594;DHT22;33199;47.590;8.300;2022-11-04T17:07:10;15.30;70.70
30594;DHT22;33199;47.590;8.300;2022-11-04T17:09:36;15.30;70.70
30594;DHT22;33199;47.590;8.300;2022-11-04T17:12:01;15.30;70.80
30594;DHT22;33199;47.590;8.300;2022-11-04T17:14:27;15.30;70.80
30594;DHT22;33199;47.590;8.300;2022-11-04T17:16:52;15.30;70.70
30594;DHT22;33199;47.590;8.300;2022-11-04T17:19:18;15.30;70.80
30594;DHT22;33199;47.590;8.300;2022-11-04T17:21:43;15.40;70.90
30594;DHT22;33199;47.590;8.300;2022-11-04T17:24:09;15.30;70.90
30594;DHT22;33199;47.590;8.300;2022-11-04T17:26:35;15.40;71.10
30594;DHT22;33199;47.590;8.300;2022-11-04T17:29:00;15.40;71.10
30594;DHT22;33199;47.590;8.300;2022-11-04T17:31:26;15.40;71.10
30594;DHT22;33199;47.590;8.300;2022-11-04T17:33:52;15.40;71.10
30594;DHT22;33199;47.590;8.300;2022-11-04T17:36:18;15.30;71.20
30594;DHT22;33199;47.590;8.300;2022-11-04T17:38:44;15.40;71.20
30594;DHT22;33199;47.590;8.300;2022-11-04T17:41:09;15.40;71.20
30594;DHT22;33199;47.590;8.300;2022-11-04T17:43:54;15.30;71.20
30594;DHT22;33199;47.590;8.300;2022-11-04T17:46:26;15.40;71.30
30594;DHT22;33199;47.590;8.300;2022-11-04T17:51:34;15.40;71.40
30594;DHT22;33199;47.590;8.300;2022-11-04T17:54:00;15.40;71.50